sensor_id;sensor_type;location;lat;lon;timestamp;P1;P2;P0
65361;PMS5003;51961;54.960;73.462;2022-07-23T00:00:03;5.00;3.50;1.00
65361;PMS5003;51961;54.960;73.462;2022-07-23T00:03:08;6.00;4.00;2.00
65361;PMS5003;51961;54.960;73.462;2022-07-23T00:06:11;4.50;4.50;1.50
65361;PMS5003;51961;54.960;73.462;2022-07-23T00:09:17;5.00;4.00;2.00
65361;PMS5003;51961;54.960;73.462;2022-07-23T00:12:19;3.33;3.00;1.00
65361;PMS5003;51961;54.960;73.462;2022-07-23T00:15:21;4.67;4.00;1.00
65361;PMS5003;51961;54.960;73.462;2022-07-23T00:18:24;6.00;4.00;1.00
65361;PMS5003;51961;54.960;73.462;2022-07-23T00:21:27;4.00;4.00;1.00
65361;PMS5003;51961;54.960;73.462;2022-07-23T00:24:30;6.50;5.00;1.00
65361;PMS5003;51961;54.960;73.462;2022-07-23T00:27:32;4.67;4.33;1.00
65361;PMS5003;51961;54.960;73.462;2022-07-23T00:30:34;5.00;3.75;1.00
65361;PMS5003;51961;54.960;73.462;2022-07-23T00:33:37;5.00;5.00;1.00
65361;PMS5003;51961;54.960;73.462;2022-07-23T00:36:39;4.67;4.67;1.00
65361;PMS5003;51961;54.960;73.462;2022-07-23T00:39:41;6.75;5.50;2.50
65361;PMS5003;51961;54.960;73.462;2022-07-23T00:42:43;6.25;4.00;2.00
65361;PMS5003;51961;54.960;73.462;2022-07-23T00:45:45;4.00;2.75;1.00
65361;PMS5003;51961;54.960;73.462;2022-07-23T00:48:48;5.25;4.00;2.00
65361;PMS5003;51961;54.960;73.462;2022-07-23T00:51:55;4.00;3.00;2.00
65361;PMS5003;51961;54.960;73.462;2022-07-23T00:55:08;5.25;5.00;2.00
65361;PMS5003;51961;54.960;73.462;2022-07-23T00:58:12;5.50;4.00;0.75
65361;PMS5003;51961;54.960;73.462;2022-07-23T01:01:14;4.00;4.00;0.00
65361;PMS5003;51961;54.960;73.462;2022-07-23T01:04:16;5.00;4.00;0.00
65361;PMS5003;51961;54.960;73.462;2022-07-23T01:07:23;5.25;4.25;0.00
65361;PMS5003;51961;54.960;73.462;2022-07-23T01:10:26;5.00;4.00;1.00
65361;PMS5003;51961;54.960;73.462;2022-07-23T01:13:35;5.25;5.25;3.00
65361;PMS5003;51961;54.960;73.462;2022-07-23T01:16:39;5.00;5.00;3.00
65361;PMS5003;51961;54.960;73.462;2022-07-23T01:19:46;6.00;6.00;2.00
65361;PMS5003;51961;54.960;73.462;2022-07-23T01:22:48;6.00;6.00;1.50
65361;PMS5003;51961;54.960;73.462;2022-07-23T01:25:52;5.00;5.00;2.00
65361;PMS5003;51961;54.960;73.462;2022-07-23T01:28:54;5.00;5.00;1.00
65361;PMS5003;51961;54.960;73.462;2022-07-23T01:31:56;8.00;6.00;3.00
65361;PMS5003;51961;54.960;73.462;2022-07-23T01:34:58;6.75;5.75;3.00
65361;PMS5003;51961;54.960;73.462;2022-07-23T01:38:00;7.75;6.00;2.00
65361;PMS5003;51961;54.960;73.462;2022-07-23T01:41:02;9.50;7.00;2.00
65361;PMS5003;51961;54.960;73.462;2022-07-23T01:44:06;7.00;6.00;3.00
65361;PMS5003;51961;54.960;73.462;2022-07-23T01:47:20;6.00;5.00;1.50
65361;PMS5003;51961;54.960;73.462;2022-07-23T01:50:24;6.50;5.00;2.00
65361;PMS5003;51961;54.960;73.462;2022-07-23T01:53:44;8.00;8.00;4.00
65361;PMS5003;51961;54.960;73.462;2022-07-23T01:56:47;10.00;9.75;3.75
65361;PMS5003;51961;54.960;73.462;2022-07-23T01:59:49;14.50;13.00;5.00
65361;PMS5003;51961;54.960;73.462;2022-07-23T02:02:54;14.00;12.75;6.00
65361;PMS5003;51961;54.960;73.462;2022-07-23T02:05:58;10.50;9.50;5.00
65361;PMS5003;51961;54.960;73.462;2022-07-23T02:09:00;8.25;8.00;4.00
65361;PMS5003;51961;54.960;73.462;2022-07-23T02:12:03;7.25;7.00;3.00
65361;PMS5003;51961;54.960;73.462;2022-07-23T02:15:11;10.50;9.75;4.00
65361;PMS5003;51961;54.960;73.462;2022-07-23T02:18:15;12.75;11.00;4.00
65361;PMS5003;51961;54.960;73.462;2022-07-23T02:21:17;10.00;7.00;3.00
65361;PMS5003;51961;54.960;73.462;2022-07-23T02:24:29;8.00;6.00;2.00
65361;PMS5003;51961;54.960;73.462;2022-07-23T02:27:31;8.00;7.33;2.00
65361;PMS5003;51961;54.960;73.462;2022-07-23T02:30:34;9.25;8.75;4.00
65361;PMS5003;51961;54.960;73.462;2022-07-23T02:33:37;10.00;9.00;3.25
65361;PMS5003;51961;54.960;73.462;2022-07-23T02:36:40;9.75;8.00;4.00
65361;PMS5003;51961;54.960;73.462;2022-07-23T02:39:43;10.00;6.00;3.00
65361;PMS5003;51961;54.960;73.462;2022-07-23T02:42:47;7.50;6.25;2.25
65361;PMS5003;51961;54.960;73.462;2022-07-23T02:45:50;8.75;7.00;3.00
65361;PMS5003;51961;54.960;73.462;2022-07-23T02:48:53;9.00;6.50;2.00
65361;PMS5003;51961;54.960;73.462;2022-07-23T02:51:55;7.25;7.00;3.00
65361;PMS5003;51961;54.960;73.462;2022-07-23T02:55:01;6.00;6.00;2.00
65361;PMS5003;51961;54.960;73.462;2022-07-23T02:58:03;6.00;4.00;1.00
65361;PMS5003;51961;54.960;73.462;2022-07-23T03:01:10;6.00;4.00;1.00
65361;PMS5003;51961;54.960;73.462;2022-07-23T03:04:12;5.75;5.75;2.00
65361;PMS5003;51961;54.960;73.462;2022-07-23T03:07:15;13.00;10.50;7.00
65361;PMS5003;51961;54.960;73.462;2022-07-23T03:10:18;13.50;8.25;4.00
65361;PMS5003;51961;54.960;73.462;2022-07-23T03:13:21;10.75;6.00;3.75
65361;PMS5003;51961;54.960;73.462;2022-07-23T03:16:34;10.50;8.00;6.00
65361;PMS5003;51961;54.960;73.462;2022-07-23T03:19:37;10.25;8.50;5.25
65361;PMS5003;51961;54.960;73.462;2022-07-23T03:22:41;12.00;9.00;4.50
65361;PMS5003;51961;54.960;73.462;2022-07-23T03:25:44;8.00;6.00;4.00
65361;PMS5003;51961;54.960;73.462;2022-07-23T03:28:51;9.00;8.50;3.00
65361;PMS5003;51961;54.960;73.462;2022-07-23T03:31:55;8.00;6.00;2.00
65361;PMS5003;51961;54.960;73.462;2022-07-23T03:34:58;7.25;6.25;3.00
65361;PMS5003;51961;54.960;73.462;2022-07-23T03:38:01;8.75;6.00;3.00
65361;PMS5003;51961;54.960;73.462;2022-07-23T03:41:05;6.00;6.00;2.00
65361;PMS5003;51961;54.960;73.462;2022-07-23T03:44:14;8.00;5.00;3.00
65361;PMS5003;51961;54.960;73.462;2022-07-23T03:47:18;7.00;7.00;3.00
65361;PMS5003;51961;54.960;73.462;2022-07-23T03:50:24;5.75;5.75;3.00
65361;PMS5003;51961;54.960;73.462;2022-07-23T03:53:27;6.00;5.50;3.00
65361;PMS5003;51961;54.960;73.462;2022-07-23T03:56:40;8.00;7.00;5.00
65361;PMS5003;51961;54.960;73.462;2022-07-23T03:59:43;6.75;6.75;4.00
65361;PMS5003;51961;54.960;73.462;2022-07-23T04:02:48;7.50;6.25;3.00
65361;PMS5003;51961;54.960;73.462;2022-07-23T04:05:50;6.00;6.00;4.00
65361;PMS5003;51961;54.960;73.462;2022-07-23T04:08:58;4.50;4.25;3.00
65361;PMS5003;51961;54.960;73.462;2022-07-23T04:12:10;4.75;4.75;2.00
65361;PMS5003;51961;54.960;73.462;2022-07-23T04:15:13;4.00;4.00;2.00
65361;PMS5003;51961;54.960;73.462;2022-07-23T04:18:15;6.00;5.00;2.00
65361;PMS5003;51961;54.960;73.462;2022-07-23T04:21:30;4.00;4.00;1.00
65361;PMS5003;51961;54.960;73.462;2022-07-23T04:24:33;3.50;3.50;0.75
65361;PMS5003;51961;54.960;73.462;2022-07-23T04:27:37;4.25;4.25;0.00
65361;PMS5003;51961;54.960;73.462;2022-07-23T04:30:40;5.00;5.00;1.25
65361;PMS5003;51961;54.960;73.462;2022-07-23T04:33:44;5.00;4.00;1.25
65361;PMS5003;51961;54.960;73.462;2022-07-23T04:36:47;4.00;4.00;2.00
65361;PMS5003;51961;54.960;73.462;2022-07-23T04:39:49;5.00;5.00;2.00
65361;PMS5003;51961;54.960;73.462;2022-07-23T04:42:51;4.00;4.00;2.00
65361;PMS5003;51961;54.960;73.462;2022-07-23T04:46:04;6.75;5.00;1.00
65361;PMS5003;51961;54.960;73.462;2022-07-23T04:49:15;9.00;6.25;3.75
65361;PMS5003;51961;54.960;73.462;2022-07-23T04:52:18;4.75;4.00;3.00
65361;PMS5003;51961;54.960;73.462;2022-07-23T04:55:20;5.00;5.00;2.00
65361;PMS5003;51961;54.960;73.462;2022-07-23T04:58:28;4.00;4.00;2.25
65361;PMS5003;51961;54.960;73.462;2022-07-23T05:01:34;4.25;4.00;3.00
65361;PMS5003;51961;54.960;73.462;2022-07-23T05:04:52;5.75;5.00;1.00
65361;PMS5003;51961;54.960;73.462;2022-07-23T05:07:54;4.00;4.00;2.00
65361;PMS5003;51961;54.960;73.462;2022-07-23T05:10:57;6.00;5.00;2.00
65361;PMS5003;51961;54.960;73.462;2022-07-23T05:14:00;3.00;3.00;1.00
65361;PMS5003;51961;54.960;73.462;2022-07-23T05:17:03;3.00;3.00;0.00
65361;PMS5003;51961;54.960;73.462;2022-07-23T05:20:14;4.00;4.00;0.00
65361;PMS5003;51961;54.960;73.462;2022-07-23T05:23:17;6.25;6.00;0.00
65361;PMS5003;51961;54.960;73.462;2022-07-23T05:26:20;5.25;5.00;0.00
65361;PMS5003;51961;54.960;73.462;2022-07-23T05:29:23;3.75;3.75;0.00
65361;PMS5003;51961;54.960;73.462;2022-07-23T05:32:26;6.00;5.00;1.25
65361;PMS5003;51961;54.960;73.462;2022-07-23T05:35:39;4.00;2.00;1.00
65361;PMS5003;51961;54.960;73.462;2022-07-23T05:39:08;4.00;3.00;1.00
65361;PMS5003;51961;54.960;73.462;2022-07-23T05:42:13;5.00;5.00;1.00
65361;PMS5003;51961;54.960;73.462;2022-07-23T05:45:16;7.00;6.50;2.00
65361;PMS5003;51961;54.960;73.462;2022-07-23T05:48:22;5.75;5.50;3.00
65361;PMS5003;51961;54.960;73.462;2022-07-23T05:51:39;6.00;5.00;2.50
65361;PMS5003;51961;54.960;73.462;2022-07-23T05:54:42;4.00;4.00;2.00
65361;PMS5003;51961;54.960;73.462;2022-07-23T05:57:49;4.00;4.00;1.00
65361;PMS5003;51961;54.960;73.462;2022-07-23T06:00:52;6.00;6.00;2.25
65361;PMS5003;51961;54.960;73.462;2022-07-23T06:04:05;6.00;6.00;3.00
65361;PMS5003;51961;54.960;73.462;2022-07-23T06:07:12;4.75;4.00;1.75
65361;PMS5003;51961;54.960;73.462;2022-07-23T06:10:14;4.00;4.00;0.00
65361;PMS5003;51961;54.960;73.462;2022-07-23T06:13:19;3.00;2.75;1.00
65361;PMS5003;51961;54.960;73.462;2022-07-23T06:16:22;4.25;4.00;2.00
65361;PMS5003;51961;54.960;73.462;2022-07-23T06:19:25;7.00;6.75;2.75
65361;PMS5003;51961;54.960;73.462;2022-07-23T06:22:34;7.00;6.00;3.00
65361;PMS5003;51961;54.960;73.462;2022-07-23T06:25:37;6.25;5.50;2.00
65361;PMS5003;51961;54.960;73.462;2022-07-23T06:28:46;6.50;6.00;2.25
65361;PMS5003;51961;54.960;73.462;2022-07-23T06:31:54;4.00;4.00;3.00
65361;PMS5003;51961;54.960;73.462;2022-07-23T06:35:07;5.25;4.25;1.00
65361;PMS5003;51961;54.960;73.462;2022-07-23T06:38:09;7.50;6.25;2.00
65361;PMS5003;51961;54.960;73.462;2022-07-23T06:41:12;5.00;4.00;2.00
65361;PMS5003;51961;54.960;73.462;2022-07-23T06:44:20;5.25;4.25;2.00
65361;PMS5003;51961;54.960;73.462;2022-07-23T06:47:25;6.50;5.00;2.00
65361;PMS5003;51961;54.960;73.462;2022-07-23T06:50:28;5.00;4.00;2.00
65361;PMS5003;51961;54.960;73.462;2022-07-23T06:53:36;6.00;4.50;2.00
65361;PMS5003;51961;54.960;73.462;2022-07-23T06:56:39;6.00;5.00;2.00
65361;PMS5003;51961;54.960;73.462;2022-07-23T06:59:46;6.25;6.25;3.25
65361;PMS5003;51961;54.960;73.462;2022-07-23T07:02:49;8.00;7.50;3.00
65361;PMS5003;51961;54.960;73.462;2022-07-23T07:05:52;6.00;6.00;2.00
65361;PMS5003;51961;54.960;73.462;2022-07-23T07:08:55;7.00;7.00;3.00
65361;PMS5003;51961;54.960;73.462;2022-07-23T07:12:04;5.50;5.50;2.00
65361;PMS5003;51961;54.960;73.462;2022-07-23T07:15:07;7.00;7.00;3.00
65361;PMS5003;51961;54.960;73.462;2022-07-23T07:18:10;6.50;6.00;3.00
65361;PMS5003;51961;54.960;73.462;2022-07-23T07:21:13;13.50;13.50;6.00
65361;PMS5003;51961;54.960;73.462;2022-07-23T07:24:16;9.25;9.25;5.00
65361;PMS5003;51961;54.960;73.462;2022-07-23T07:27:19;8.25;7.00;3.00
65361;PMS5003;51961;54.960;73.462;2022-07-23T07:30:22;5.75;5.25;2.75
65361;PMS5003;51961;54.960;73.462;2022-07-23T07:33:30;7.00;7.00;2.75
65361;PMS5003;51961;54.960;73.462;2022-07-23T07:36:33;10.00;9.00;5.00
65361;PMS5003;51961;54.960;73.462;2022-07-23T07:39:35;6.00;6.00;3.00
65361;PMS5003;51961;54.960;73.462;2022-07-23T07:42:48;7.00;6.00;3.00
65361;PMS5003;51961;54.960;73.462;2022-07-23T07:45:50;5.00;4.50;1.00
65361;PMS5003;51961;54.960;73.462;2022-07-23T07:48:52;4.50;2.00;1.00
65361;PMS5003;51961;54.960;73.462;2022-07-23T07:51:54;8.67;8.00;1.00
65361;PMS5003;51961;54.960;73.462;2022-07-23T07:54:56;8.00;8.00;3.00
65361;PMS5003;51961;54.960;73.462;2022-07-23T07:57:58;2.50;2.50;1.00
65361;PMS5003;51961;54.960;73.462;2022-07-23T08:01:01;4.00;4.00;1.00
65361;PMS5003;51961;54.960;73.462;2022-07-23T08:04:04;6.00;6.00;2.00
65361;PMS5003;51961;54.960;73.462;2022-07-23T08:07:06;6.00;5.75;2.00
65361;PMS5003;51961;54.960;73.462;2022-07-23T08:10:09;4.00;4.00;2.00
65361;PMS5003;51961;54.960;73.462;2022-07-23T08:13:17;4.00;4.00;3.00
65361;PMS5003;51961;54.960;73.462;2022-07-23T08:16:20;6.00;5.25;3.25
65361;PMS5003;51961;54.960;73.462;2022-07-23T08:19:23;6.25;6.00;3.00
65361;PMS5003;51961;54.960;73.462;2022-07-23T08:22:40;7.00;7.00;3.00
65361;PMS5003;51961;54.960;73.462;2022-07-23T08:25:48;9.00;8.00;5.00
65361;PMS5003;51961;54.960;73.462;2022-07-23T08:28:52;10.00;8.25;4.00
65361;PMS5003;51961;54.960;73.462;2022-07-23T08:31:55;10.25;8.25;5.00
65361;PMS5003;51961;54.960;73.462;2022-07-23T08:34:58;15.25;10.75;6.50
65361;PMS5003;51961;54.960;73.462;2022-07-23T08:38:11;17.00;13.00;6.00
65361;PMS5003;51961;54.960;73.462;2022-07-23T08:41:14;15.00;12.00;5.50
65361;PMS5003;51961;54.960;73.462;2022-07-23T08:44:17;12.00;9.50;5.00
65361;PMS5003;51961;54.960;73.462;2022-07-23T08:47:20;13.00;10.00;6.00
65361;PMS5003;51961;54.960;73.462;2022-07-23T08:50:23;10.50;8.00;4.00
65361;PMS5003;51961;54.960;73.462;2022-07-23T08:53:27;7.50;7.00;3.00
65361;PMS5003;51961;54.960;73.462;2022-07-23T08:56:30;10.00;9.00;5.75
65361;PMS5003;51961;54.960;73.462;2022-07-23T08:59:33;9.00;8.00;4.00
65361;PMS5003;51961;54.960;73.462;2022-07-23T09:02:42;9.00;8.75;3.50
65361;PMS5003;51961;54.960;73.462;2022-07-23T09:05:51;11.00;10.50;3.50
65361;PMS5003;51961;54.960;73.462;2022-07-23T09:08:55;10.25;9.00;4.00
65361;PMS5003;51961;54.960;73.462;2022-07-23T09:12:07;11.00;9.00;6.00
65361;PMS5003;51961;54.960;73.462;2022-07-23T09:15:10;12.00;11.00;6.00
65361;PMS5003;51961;54.960;73.462;2022-07-23T09:18:15;14.25;13.50;5.50
65361;PMS5003;51961;54.960;73.462;2022-07-23T09:21:19;15.00;14.00;7.00
65361;PMS5003;51961;54.960;73.462;2022-07-23T09:24:22;11.75;8.25;3.00
65361;PMS5003;51961;54.960;73.462;2022-07-23T09:27:25;9.50;9.50;4.00
65361;PMS5003;51961;54.960;73.462;2022-07-23T09:30:51;9.00;8.00;4.00
65361;PMS5003;51961;54.960;73.462;2022-07-23T09:34:01;7.50;6.50;3.25
65361;PMS5003;51961;54.960;73.462;2022-07-23T09:40:15;14.00;14.00;7.00
65361;PMS5003;51961;54.960;73.462;2022-07-23T09:43:26;14.00;12.00;5.50
65361;PMS5003;51961;54.960;73.462;2022-07-23T09:46:35;15.00;11.50;6.00
65361;PMS5003;51961;54.960;73.462;2022-07-23T09:49:37;8.25;6.25;4.00
65361;PMS5003;51961;54.960;73.462;2022-07-23T09:52:43;8.00;6.00;3.00
65361;PMS5003;51961;54.960;73.462;2022-07-23T09:55:49;10.75;9.50;3.50
65361;PMS5003;51961;54.960;73.462;2022-07-23T09:58:54;9.75;7.00;3.00
65361;PMS5003;51961;54.960;73.462;2022-07-23T10:02:29;8.50;6.00;2.00
65361;PMS5003;51961;54.960;73.462;2022-07-23T10:05:58;7.00;6.00;3.00
65361;PMS5003;51961;54.960;73.462;2022-07-23T10:09:27;7.00;6.00;2.00
65361;PMS5003;51961;54.960;73.462;2022-07-23T10:13:07;4.75;4.75;2.25
65361;PMS5003;51961;54.960;73.462;2022-07-23T10:16:27;6.00;4.00;2.25
65361;PMS5003;51961;54.960;73.462;2022-07-23T10:19:30;5.00;5.00;2.00
65361;PMS5003;51961;54.960;73.462;2022-07-23T10:22:38;6.75;6.75;3.25
65361;PMS5003;51961;54.960;73.462;2022-07-23T10:25:57;8.25;7.00;4.00
65361;PMS5003;51961;54.960;73.462;2022-07-23T10:35:47;9.00;8.00;3.25
65361;PMS5003;51961;54.960;73.462;2022-07-23T10:42:13;6.50;6.00;2.00
65361;PMS5003;51961;54.960;73.462;2022-07-23T10:48:29;5.00;5.00;2.00
65361;PMS5003;51961;54.960;73.462;2022-07-23T10:51:31;5.00;4.00;0.00
65361;PMS5003;51961;54.960;73.462;2022-07-23T10:54:38;4.67;4.00;0.00
65361;PMS5003;51961;54.960;73.462;2022-07-23T10:57:50;3.00;3.00;0.00
65361;PMS5003;51961;54.960;73.462;2022-07-23T11:00:52;4.00;4.00;0.00
65361;PMS5003;51961;54.960;73.462;2022-07-23T11:03:57;3.00;3.00;1.00
65361;PMS5003;51961;54.960;73.462;2022-07-23T11:10:02;4.00;4.00;1.00
65361;PMS5003;51961;54.960;73.462;2022-07-23T11:16:26;6.00;5.67;2.00
65361;PMS5003;51961;54.960;73.462;2022-07-23T11:19:28;5.67;5.00;2.00
65361;PMS5003;51961;54.960;73.462;2022-07-23T11:25:48;6.50;5.00;3.00
65361;PMS5003;51961;54.960;73.462;2022-07-23T11:28:50;5.00;5.00;1.00
65361;PMS5003;51961;54.960;73.462;2022-07-23T11:31:54;7.00;6.00;3.00
65361;PMS5003;51961;54.960;73.462;2022-07-23T11:35:00;7.75;7.00;3.00
65361;PMS5003;51961;54.960;73.462;2022-07-23T11:38:03;8.00;8.00;4.00
65361;PMS5003;51961;54.960;73.462;2022-07-23T11:41:07;6.00;6.00;3.50
65361;PMS5003;51961;54.960;73.462;2022-07-23T11:47:28;7.00;6.00;3.00
65361;PMS5003;51961;54.960;73.462;2022-07-23T11:50:30;7.50;7.50;3.50
65361;PMS5003;51961;54.960;73.462;2022-07-23T11:53:33;6.00;5.00;2.00
65361;PMS5003;51961;54.960;73.462;2022-07-23T11:56:36;4.00;4.00;2.00
65361;PMS5003;51961;54.960;73.462;2022-07-23T11:59:39;6.00;5.00;2.00
65361;PMS5003;51961;54.960;73.462;2022-07-23T12:02:53;4.00;3.00;1.00
65361;PMS5003;51961;54.960;73.462;2022-07-23T12:05:58;5.00;4.00;2.00
65361;PMS5003;51961;54.960;73.462;2022-07-23T12:09:01;4.33;4.00;1.33
65361;PMS5003;51961;54.960;73.462;2022-07-23T12:12:03;2.00;2.00;0.00
65361;PMS5003;51961;54.960;73.462;2022-07-23T12:15:25;4.00;4.00;0.00
65361;PMS5003;51961;54.960;73.462;2022-07-23T12:18:27;3.25;2.25;0.00
65361;PMS5003;51961;54.960;73.462;2022-07-23T12:21:30;3.00;3.00;0.00
65361;PMS5003;51961;54.960;73.462;2022-07-23T12:28:01;4.00;3.00;1.00
65361;PMS5003;51961;54.960;73.462;2022-07-23T12:31:04;5.00;5.00;1.25
65361;PMS5003;51961;54.960;73.462;2022-07-23T12:34:13;5.00;3.00;0.00
65361;PMS5003;51961;54.960;73.462;2022-07-23T12:37:33;3.00;3.00;0.00
65361;PMS5003;51961;54.960;73.462;2022-07-23T12:40:45;7.00;5.00;2.00
65361;PMS5003;51961;54.960;73.462;2022-07-23T12:43:47;4.00;4.00;2.00
65361;PMS5003;51961;54.960;73.462;2022-07-23T12:46:52;4.00;4.00;2.00
65361;PMS5003;51961;54.960;73.462;2022-07-23T12:50:00;5.00;5.00;2.00
65361;PMS5003;51961;54.960;73.462;2022-07-23T12:53:10;6.75;4.50;2.50
65361;PMS5003;51961;54.960;73.462;2022-07-23T12:56:30;4.00;4.00;1.00
65361;PMS5003;51961;54.960;73.462;2022-07-23T12:59:32;3.00;3.00;0.00
65361;PMS5003;51961;54.960;73.462;2022-07-23T13:02:45;4.25;4.25;0.00
65361;PMS5003;51961;54.960;73.462;2022-07-23T13:06:00;6.00;6.00;3.50
65361;PMS5003;51961;54.960;73.462;2022-07-23T13:09:05;5.00;4.00;2.00
65361;PMS5003;51961;54.960;73.462;2022-07-23T13:12:08;5.50;4.00;2.00
65361;PMS5003;51961;54.960;73.462;2022-07-23T13:15:16;7.00;5.00;3.00
65361;PMS5003;51961;54.960;73.462;2022-07-23T13:18:24;6.50;6.25;3.50
65361;PMS5003;51961;54.960;73.462;2022-07-23T13:21:28;8.75;8.00;4.00
65361;PMS5003;51961;54.960;73.462;2022-07-23T13:24:31;10.00;10.00;3.00
65361;PMS5003;51961;54.960;73.462;2022-07-23T13:27:34;6.00;6.00;3.00
65361;PMS5003;51961;54.960;73.462;2022-07-23T13:30:48;6.00;4.75;2.50
65361;PMS5003;51961;54.960;73.462;2022-07-23T13:33:52;5.50;4.25;2.00
65361;PMS5003;51961;54.960;73.462;2022-07-23T13:36:53;6.50;5.50;2.50
65361;PMS5003;51961;54.960;73.462;2022-07-23T13:39:56;8.25;6.00;2.25
65361;PMS5003;51961;54.960;73.462;2022-07-23T13:43:01;8.75;6.25;1.25
65361;PMS5003;51961;54.960;73.462;2022-07-23T13:46:04;7.00;6.00;2.75
65361;PMS5003;51961;54.960;73.462;2022-07-23T13:49:07;7.75;6.75;3.00
65361;PMS5003;51961;54.960;73.462;2022-07-23T13:52:10;6.00;6.00;2.00
65361;PMS5003;51961;54.960;73.462;2022-07-23T13:55:17;7.25;6.00;1.00
65361;PMS5003;51961;54.960;73.462;2022-07-23T13:58:20;9.00;9.00;3.00
65361;PMS5003;51961;54.960;73.462;2022-07-23T14:01:23;8.00;6.50;3.00
65361;PMS5003;51961;54.960;73.462;2022-07-23T14:04:31;8.25;7.00;3.00
65361;PMS5003;51961;54.960;73.462;2022-07-23T14:07:44;5.00;5.00;2.00
65361;PMS5003;51961;54.960;73.462;2022-07-23T14:10:48;6.50;4.25;2.00
65361;PMS5003;51961;54.960;73.462;2022-07-23T14:13:50;6.25;5.25;2.75
65361;PMS5003;51961;54.960;73.462;2022-07-23T14:16:53;3.00;3.00;1.00
65361;PMS5003;51961;54.960;73.462;2022-07-23T14:20:05;5.00;4.25;2.00
65361;PMS5003;51961;54.960;73.462;2022-07-23T14:23:13;3.00;2.00;1.00
65361;PMS5003;51961;54.960;73.462;2022-07-23T14:26:15;4.00;3.33;2.00
65361;PMS5003;51961;54.960;73.462;2022-07-23T14:29:17;4.75;4.75;2.00
65361;PMS5003;51961;54.960;73.462;2022-07-23T14:32:19;1.50;1.00;1.00
65361;PMS5003;51961;54.960;73.462;2022-07-23T14:35:21;3.00;3.00;1.00
65361;PMS5003;51961;54.960;73.462;2022-07-23T14:38:26;3.00;3.00;0.00
65361;PMS5003;51961;54.960;73.462;2022-07-23T14:41:34;5.00;3.00;1.00
65361;PMS5003;51961;54.960;73.462;2022-07-23T14:44:37;5.00;4.00;1.00
65361;PMS5003;51961;54.960;73.462;2022-07-23T14:47:39;6.50;5.50;1.50
65361;PMS5003;51961;54.960;73.462;2022-07-23T14:50:41;9.00;7.00;3.50
65361;PMS5003;51961;54.960;73.462;2022-07-23T14:53:44;10.50;9.75;4.25
65361;PMS5003;51961;54.960;73.462;2022-07-23T14:56:55;13.50;11.50;4.75
65361;PMS5003;51961;54.960;73.462;2022-07-23T14:59:57;15.50;12.00;5.00
65361;PMS5003;51961;54.960;73.462;2022-07-23T15:03:00;14.00;9.50;4.00
65361;PMS5003;51961;54.960;73.462;2022-07-23T15:06:03;14.00;9.50;5.00
65361;PMS5003;51961;54.960;73.462;2022-07-23T15:09:06;13.00;8.00;4.00
65361;PMS5003;51961;54.960;73.462;2022-07-23T15:12:09;13.00;7.00;3.00
65361;PMS5003;51961;54.960;73.462;2022-07-23T15:15:22;12.00;6.00;3.00
65361;PMS5003;51961;54.960;73.462;2022-07-23T15:18:25;8.25;6.00;2.00
65361;PMS5003;51961;54.960;73.462;2022-07-23T15:21:27;6.00;5.00;2.00
65361;PMS5003;51961;54.960;73.462;2022-07-23T15:24:30;7.25;5.00;1.00
65361;PMS5003;51961;54.960;73.462;2022-07-23T15:27:32;4.00;3.50;1.25
65361;PMS5003;51961;54.960;73.462;2022-07-23T15:30:34;7.00;6.75;2.25
65361;PMS5003;51961;54.960;73.462;2022-07-23T15:33:36;5.00;4.00;1.00
65361;PMS5003;51961;54.960;73.462;2022-07-23T15:36:39;5.33;5.00;1.00
65361;PMS5003;51961;54.960;73.462;2022-07-23T15:39:41;3.50;3.25;1.00
65361;PMS5003;51961;54.960;73.462;2022-07-23T15:42:43;6.50;6.50;3.00
65361;PMS5003;51961;54.960;73.462;2022-07-23T15:45:45;6.00;5.25;2.00
65361;PMS5003;51961;54.960;73.462;2022-07-23T15:48:47;7.00;6.00;3.00
65361;PMS5003;51961;54.960;73.462;2022-07-23T15:51:49;7.00;5.00;2.50
65361;PMS5003;51961;54.960;73.462;2022-07-23T15:54:51;7.75;6.00;2.00
65361;PMS5003;51961;54.960;73.462;2022-07-23T15:57:53;7.00;7.00;3.00
65361;PMS5003;51961;54.960;73.462;2022-07-23T16:01:00;9.00;7.00;2.00
65361;PMS5003;51961;54.960;73.462;2022-07-23T16:04:07;6.67;6.67;2.00
65361;PMS5003;51961;54.960;73.462;2022-07-23T16:07:10;6.75;5.75;3.00
65361;PMS5003;51961;54.960;73.462;2022-07-23T16:10:12;6.50;5.00;2.00
65361;PMS5003;51961;54.960;73.462;2022-07-23T16:13:15;8.25;7.50;2.00
65361;PMS5003;51961;54.960;73.462;2022-07-23T16:16:16;7.00;6.00;2.00
65361;PMS5003;51961;54.960;73.462;2022-07-23T16:19:19;7.50;6.25;3.00
65361;PMS5003;51961;54.960;73.462;2022-07-23T16:22:21;5.00;5.00;2.00
65361;PMS5003;51961;54.960;73.462;2022-07-23T16:25:23;7.00;5.00;3.50
65361;PMS5003;51961;54.960;73.462;2022-07-23T16:28:26;5.25;3.00;2.00
65361;PMS5003;51961;54.960;73.462;2022-07-23T16:31:27;5.00;5.00;2.75
65361;PMS5003;51961;54.960;73.462;2022-07-23T16:34:32;5.25;5.25;3.00
65361;PMS5003;51961;54.960;73.462;2022-07-23T16:37:39;6.00;6.00;2.00
65361;PMS5003;51961;54.960;73.462;2022-07-23T16:40:51;5.00;4.50;2.00
65361;PMS5003;51961;54.960;73.462;2022-07-23T16:43:53;5.00;4.00;1.00
65361;PMS5003;51961;54.960;73.462;2022-07-23T16:47:00;7.75;6.75;2.00
65361;PMS5003;51961;54.960;73.462;2022-07-23T16:50:03;7.25;6.00;3.00
65361;PMS5003;51961;54.960;73.462;2022-07-23T16:53:05;7.00;5.00;2.00
65361;PMS5003;51961;54.960;73.462;2022-07-23T16:56:08;5.00;4.25;2.75
65361;PMS5003;51961;54.960;73.462;2022-07-23T16:59:15;6.25;5.75;3.00
65361;PMS5003;51961;54.960;73.462;2022-07-23T17:02:27;4.50;4.50;1.75
65361;PMS5003;51961;54.960;73.462;2022-07-23T17:05:39;6.00;6.00;1.00
65361;PMS5003;51961;54.960;73.462;2022-07-23T17:08:41;6.00;5.75;2.00
65361;PMS5003;51961;54.960;73.462;2022-07-23T17:11:48;4.00;4.00;2.00
65361;PMS5003;51961;54.960;73.462;2022-07-23T17:14:50;7.00;5.00;2.00
65361;PMS5003;51961;54.960;73.462;2022-07-23T17:17:53;7.00;5.00;2.00
65361;PMS5003;51961;54.960;73.462;2022-07-23T17:20:55;8.67;8.67;3.00
65361;PMS5003;51961;54.960;73.462;2022-07-23T17:24:01;8.00;7.00;2.50
65361;PMS5003;51961;54.960;73.462;2022-07-23T17:27:05;7.00;6.00;3.00
65361;PMS5003;51961;54.960;73.462;2022-07-23T17:30:08;8.75;8.75;4.00
65361;PMS5003;51961;54.960;73.462;2022-07-23T17:33:11;9.33;9.00;4.67
65361;PMS5003;51961;54.960;73.462;2022-07-23T17:36:13;11.25;8.00;4.00
65361;PMS5003;51961;54.960;73.462;2022-07-23T17:39:20;7.50;6.00;2.00
65361;PMS5003;51961;54.960;73.462;2022-07-23T17:42:22;6.50;6.00;2.25
65361;PMS5003;51961;54.960;73.462;2022-07-23T17:45:24;8.00;7.75;3.00
65361;PMS5003;51961;54.960;73.462;2022-07-23T17:48:27;11.00;10.75;4.00
65361;PMS5003;51961;54.960;73.462;2022-07-23T17:51:29;8.00;7.00;3.00
65361;PMS5003;51961;54.960;73.462;2022-07-23T17:54:31;7.00;6.00;3.00
65361;PMS5003;51961;54.960;73.462;2022-07-23T17:57:34;9.00;7.33;4.00
65361;PMS5003;51961;54.960;73.462;2022-07-23T18:00:36;9.25;8.25;3.50
65361;PMS5003;51961;54.960;73.462;2022-07-23T18:03:49;12.75;9.00;4.00
65361;PMS5003;51961;54.960;73.462;2022-07-23T18:07:03;12.00;9.00;4.00
65361;PMS5003;51961;54.960;73.462;2022-07-23T18:10:05;10.50;8.00;4.00
65361;PMS5003;51961;54.960;73.462;2022-07-23T18:13:08;7.50;5.75;3.00
65361;PMS5003;51961;54.960;73.462;2022-07-23T18:16:13;8.00;7.25;3.00